Time;durP1;ratioP1;P1;durP2;ratioP2;P2;SDS_P1;SDS_P2;PMS_P1;PMS_P2;Temp;Humidity;BMP_temperature;BMP_pressure;BME280_temperature;BME280_humidity;BME280_pressure;Samples;Min_cycle;Max_cycle;Signal;HPM_P1;HPM_P2
2023/10/02 00:01:07;;;;;;;7.40;4.30;;;16.70;99.90;;;17.09;nan;101246.25;4913480;29;20776;-66
2023/10/02 00:03:41;;;;;;;6.73;4.40;;;16.70;99.90;;;17.07;nan;101245.53;4905252;29;20649;-67
2023/10/02 00:06:10;;;;;;;8.53;4.63;;;16.70;99.90;;;17.03;nan;101247.63;4908154;29;20684;-68
2023/10/02 00:08:48;;;;;;;5.73;4.03;;;16.70;99.90;;;17.03;nan;101250.28;4910557;29;20670;-68
2023/10/02 00:14:18;;;;;;;5.47;4.03;;;16.70;99.90;;;17.00;nan;101242.63;4919236;29;20650;-68
2023/10/02 00:17:00;;;;;;;7.30;4.43;;;16.70;99.90;;;17.00;nan;101245.25;4925899;29;20664;-69
2023/10/02 00:19:38;;;;;;;4.37;3.40;;;16.60;99.90;;;17.00;nan;101244.41;4920037;29;20671;-67
2023/10/02 00:22:07;;;;;;;5.90;3.73;;;16.60;99.90;;;16.99;nan;101248.84;4905833;29;20642;-67
2023/10/02 00:24:40;;;;;;;6.33;4.27;;;16.60;99.90;;;17.00;nan;101254.97;4913842;29;20641;-67
2023/10/02 00:27:09;;;;;;;7.33;4.70;;;16.60;99.90;;;16.98;nan;101249.84;4930307;29;20719;-67
2023/10/02 00:29:53;;;;;;;6.20;4.00;;;16.60;99.90;;;16.94;nan;101251.06;4916265;29;21010;-68
2023/10/02 00:32:20;;;;;;;10.00;4.47;;;16.60;99.90;;;16.93;nan;101259.94;4914301;29;20649;-68
2023/10/02 00:34:47;;;;;;;6.13;4.10;;;16.60;99.90;;;16.94;nan;101256.34;4915019;29;21279;-66
2023/10/02 00:37:15;;;;;;;9.30;4.10;;;16.50;99.90;;;16.96;nan;101258.84;4929045;29;21244;-67
2023/10/02 00:39:52;;;;;;;9.10;4.90;;;16.60;99.90;;;16.93;nan;101270.47;4912172;29;20681;-68
2023/10/02 00:44:56;;;;;;;6.13;4.00;;;16.50;99.90;;;16.76;nan;101273.78;4913764;29;20649;-66
2023/10/02 00:47:42;;;;;;;7.00;4.03;;;16.40;99.90;;;16.69;nan;101271.81;4907058;29;20670;-67
2023/10/02 00:50:22;;;;;;;7.43;4.30;;;16.30;99.90;;;16.64;nan;101274.84;4926080;29;20641;-67
2023/10/02 00:53:07;;;;;;;7.80;4.13;;;16.30;99.90;;;16.61;nan;101269.84;4912511;29;20648;-65
2023/10/02 00:55:35;;;;;;;6.07;4.10;;;16.30;99.90;;;16.57;nan;101276.34;4914545;29;20654;-67
2023/10/02 00:58:04;;;;;;;7.97;3.77;;;16.20;99.90;;;16.54;nan;101263.44;4915822;29;20668;-65
2023/10/02 01:00:36;;;;;;;7.63;4.33;;;16.20;99.90;;;16.51;nan;101268.13;4915633;29;20677;-67
2023/10/02 01:03:14;;;;;;;6.47;3.90;;;16.20;99.90;;;16.44;nan;101264.34;4913867;29;20641;-67
2023/10/02 01:05:50;;;;;;;6.67;3.93;;;16.10;99.90;;;16.37;nan;101261.41;4925543;29;20694;-67
2023/10/02 01:11:13;;;;;;;5.63;4.17;;;16.00;99.90;;;16.32;nan;101268.88;4921951;29;20676;-68
2023/10/02 01:13:42;;;;;;;7.30;4.50;;;16.00;99.90;;;16.32;nan;101255.69;4912473;29;20645;-67
2023/10/02 01:16:09;;;;;;;6.50;4.00;;;16.00;99.90;;;16.31;nan;101256.69;4914761;29;20657;-68
2023/10/02 01:18:38;;;;;;;7.87;3.90;;;16.00;99.90;;;16.30;nan;101260.25;4912054;29;20653;-68
2023/10/02 01:21:18;;;;;;;7.23;3.93;;;16.00;99.90;;;16.25;nan;101263.28;4914440;29;20630;-67
2023/10/02 01:24:10;;;;;;;6.03;4.23;;;15.90;99.90;;;16.23;nan;101264.38;4923068;29;20631;-66
2023/10/02 01:26:42;;;;;;;10.40;4.40;;;15.90;99.90;;;16.20;nan;101265.50;4907574;29;21607;-66
2023/10/02 01:29:11;;;;;;;7.83;3.93;;;15.90;99.90;;;16.22;nan;101268.81;4912634;29;20644;-68
2023/10/02 01:31:44;;;;;;;5.17;3.63;;;15.90;99.90;;;16.23;nan;101264.38;4915707;29;20638;-66
2023/10/02 01:37:32;;;;;;;3.30;2.93;;;15.90;99.90;;;16.25;nan;101257.19;4912003;29;20653;-67
2023/10/02 01:40:28;;;;;;;8.10;3.87;;;15.90;99.90;;;16.21;nan;101261.88;4912581;29;20678;-67
2023/10/02 01:42:39;;;;;;;7.53;4.07;;;15.90;99.90;;;16.20;nan;101254.13;4913955;29;21254;-67
2023/10/02 01:45:08;;;;;;;8.23;4.20;;;15.90;99.90;;;16.16;nan;101250.91;4914458;29;21367;-67
2023/10/02 01:47:41;;;;;;;5.07;3.80;;;15.90;99.90;;;16.17;nan;101254.38;4913554;29;20752;-67
2023/10/02 01:50:09;;;;;;;9.87;4.17;;;15.80;99.90;;;16.17;nan;101249.94;4912324;29;21014;-68
2023/10/02 01:52:37;;;;;;;6.07;3.40;;;15.80;99.90;;;16.19;nan;101249.81;4915107;29;20677;-67
2023/10/02 01:55:29;;;;;;;9.47;4.50;;;15.80;99.90;;;16.14;nan;101247.56;4914229;29;21242;-67
2023/10/02 01:57:56;;;;;;;5.67;3.53;;;15.80;99.90;;;16.11;nan;101253.09;4898093;29;20685;-67
2023/10/02 02:00:24;;;;;;;6.13;3.73;;;15.80;99.90;;;16.04;nan;101251.94;4914917;29;20680;-67
2023/10/02 02:03:14;;;;;;;7.03;4.07;;;15.70;99.90;;;16.03;nan;101260.00;4915014;29;20669;-67
2023/10/02 02:05:39;;;;;;;5.47;3.80;;;15.70;99.90;;;16.03;nan;101254.72;4907567;29;20642;-67
2023/10/02 02:08:21;;;;;;;5.40;3.57;;;15.70;99.90;;;16.03;nan;101257.34;4913710;29;20637;-67
2023/10/02 02:11:14;;;;;;;8.87;4.13;;;15.70;99.90;;;16.04;nan;101259.84;4912488;29;20668;-66
2023/10/02 02:13:52;;;;;;;4.83;3.40;;;15.70;99.90;;;16.06;nan;101257.06;4913491;29;20661;-68
2023/10/02 02:16:38;;;;;;;3.47;2.27;;;15.70;99.90;;;16.06;nan;101251.81;4926017;29;21467;-68
2023/10/02 02:19:06;;;;;;;6.50;3.97;;;15.70;99.90;;;16.03;nan;101268.72;4911462;29;20649;-67
2023/10/02 02:21:34;;;;;;;4.53;3.70;;;15.60;99.90;;;15.99;nan;101266.47;4914162;29;20637;-66
2023/10/02 02:24:07;;;;;;;7.77;4.57;;;15.70;99.90;;;15.94;nan;101264.22;4911067;29;20686;-68
2023/10/02 02:26:37;;;;;;;5.67;3.87;;;15.60;99.90;;;15.95;nan;101265.06;4914922;29;20661;-67
2023/10/02 02:29:26;;;;;;;7.10;4.60;;;15.60;99.90;;;15.96;nan;101266.72;4912862;29;20638;-67
2023/10/02 02:31:54;;;;;;;5.00;3.77;;;15.60;99.90;;;15.96;nan;101271.97;4912849;29;20642;-67
2023/10/02 02:34:24;;;;;;;7.03;4.13;;;15.60;99.90;;;15.96;nan;101264.09;4911810;29;20653;-67
2023/10/02 02:36:54;;;;;;;4.90;3.37;;;15.60;99.90;;;15.96;nan;101264.94;4911754;29;20673;-68
2023/10/02 02:39:22;;;;;;;11.83;3.73;;;15.60;99.90;;;15.93;nan;101264.38;4927420;29;20670;-67
2023/10/02 02:44:46;;;;;;;5.83;3.10;;;15.60;99.90;;;15.95;nan;101263.25;4910752;29;20637;-67
2023/10/02 02:47:16;;;;;;;6.67;4.37;;;15.60;99.90;;;15.92;nan;101260.91;4912944;29;21311;-67
2023/10/02 02:49:48;;;;;;;8.53;4.23;;;15.60;99.90;;;15.87;nan;101256.97;4910818;29;20657;-65
2023/10/02 02:52:35;;;;;;;5.00;3.77;;;15.50;99.90;;;15.79;nan;101256.78;4913738;29;20638;-68
2023/10/02 02:55:12;;;;;;;5.23;3.03;;;15.50;99.90;;;15.73;nan;101255.50;4912894;29;20638;-66
2023/10/02 02:57:45;;;;;;;7.50;3.77;;;15.40;99.90;;;15.73;nan;101250.25;4912243;29;20701;-67
2023/10/02 03:00:32;;;;;;;6.90;4.03;;;15.40;99.90;;;15.75;nan;101247.47;4927782;29;21263;-68
2023/10/02 03:03:00;;;;;;;6.87;3.73;;;15.40;99.90;;;15.76;nan;101255.22;4911013;29;21294;-65
2023/10/02 03:05:38;;;;;;;6.50;4.23;;;15.40;99.90;;;15.75;nan;101256.22;4907212;29;21239;-67
2023/10/02 03:08:06;;;;;;;4.30;3.40;;;15.40;99.90;;;15.75;nan;101247.47;4910619;29;20661;-67
2023/10/02 03:10:40;;;;;;;7.10;3.90;;;15.40;99.90;;;15.72;nan;101247.72;4910839;29;20642;-66
2023/10/02 03:13:16;;;;;;;7.40;4.33;;;15.40;99.90;;;15.71;nan;101251.31;4909721;29;20633;-67
2023/10/02 03:15:48;;;;;;;4.17;3.47;;;15.40;99.90;;;15.68;nan;101252.41;4912971;29;20682;-66
2023/10/02 03:18:23;;;;;;;5.97;3.87;;;15.40;99.90;;;15.68;nan;101251.56;4904244;29;20630;-68
2023/10/02 03:20:51;;;;;;;6.40;3.70;;;15.40;99.90;;;15.70;nan;101255.75;4926165;29;20674;-67
2023/10/02 03:23:19;;;;;;;7.93;3.77;;;15.40;99.90;;;15.69;nan;101253.25;4911368;29;21215;-69
2023/10/02 03:25:47;;;;;;;5.10;3.10;;;15.30;99.90;;;15.67;nan;101248.13;4904700;29;21017;-67
2023/10/02 03:28:39;;;;;;;12.93;4.20;;;15.40;99.90;;;15.69;nan;101243.56;4912234;29;21048;-68
2023/10/02 03:31:02;;;;;;;4.13;2.80;;;15.40;99.90;;;15.69;nan;101250.63;4923053;29;21203;-67
2023/10/02 03:33:32;;;;;;;6.30;3.70;;;15.40;99.90;;;15.64;nan;101250.16;4910907;29;20634;-66
2023/10/02 03:36:09;;;;;;;4.73;3.50;;;15.30;99.90;;;15.58;nan;101240.16;4901382;29;20647;-66
2023/10/02 03:38:44;;;;;;;5.37;3.70;;;15.30;99.90;;;15.57;nan;101249.03;4912890;29;21001;-69
2023/10/02 03:41:13;;;;;;;9.17;4.23;;;15.20;99.90;;;15.56;nan;101257.84;4920456;29;21302;-65
2023/10/02 03:43:43;;;;;;;7.07;4.30;;;15.30;99.90;;;15.59;nan;101253.16;4912650;29;21139;-67
2023/10/02 03:46:35;;;;;;;7.47;3.90;;;15.30;99.90;;;15.56;nan;101248.19;4910462;29;20670;-67
2023/10/02 03:49:04;;;;;;;4.27;3.30;;;15.20;99.90;;;15.57;nan;101249.03;4910283;29;20652;-67
2023/10/02 03:51:40;;;;;;;4.70;3.77;;;15.30;99.90;;;15.57;nan;101251.66;4912900;29;20660;-67
2023/10/02 03:54:18;;;;;;;7.90;3.77;;;15.30;99.90;;;15.50;nan;101248.69;4908807;29;20645;-67
2023/10/02 03:56:48;;;;;;;7.13;3.67;;;15.20;99.90;;;15.45;nan;101248.22;4911937;29;20670;-66
2023/10/02 03:59:21;;;;;;;7.00;4.17;;;15.10;99.90;;;15.45;nan;101259.59;4910741;29;20642;-69
2023/10/02 04:01:52;;;;;;;7.10;4.03;;;15.20;99.90;;;15.44;nan;101259.69;4925703;29;20638;-67
2023/10/02 04:04:21;;;;;;;8.40;4.57;;;15.10;99.90;;;15.44;nan;101260.53;4908502;29;21185;-68
2023/10/02 04:06:54;;;;;;;13.67;4.90;;;15.10;99.90;;;15.45;nan;101262.22;4911802;29;21235;-67
2023/10/02 04:09:26;;;;;;;6.27;4.03;;;15.10;99.90;;;15.41;nan;101255.50;4910299;29;21013;-69
2023/10/02 04:11:54;;;;;;;8.17;3.80;;;15.10;99.90;;;15.44;nan;101251.81;4902954;29;21076;-68
2023/10/02 04:14:32;;;;;;;5.93;3.47;;;15.10;99.90;;;15.42;nan;101257.16;4910050;29;20633;-66
2023/10/02 04:19:52;;;;;;;7.00;3.93;;;15.10;99.90;;;15.39;nan;101254.81;4909162;29;20688;-66
2023/10/02 04:22:19;;;;;;;4.57;3.70;;;15.10;99.90;;;15.40;nan;101245.09;4911877;29;20641;-68
2023/10/02 04:24:58;;;;;;;5.33;4.17;;;15.10;99.90;;;15.42;nan;101256.31;4911485;29;20696;-65
2023/10/02 04:32:49;;;;;;;8.10;4.17;;;15.10;99.90;;;15.41;nan;101260.78;4911314;29;20646;-66
2023/10/02 04:38:07;;;;;;;7.30;3.77;;;15.10;99.90;;;15.38;nan;101250.50;4903610;29;20669;-67
2023/10/02 04:40:49;;;;;;;11.60;3.83;;;15.10;99.90;;;15.40;nan;101243.31;4911934;29;20693;-66
2023/10/02 04:43:23;;;;;;;6.47;3.10;;;15.10;99.90;;;15.35;nan;101244.66;4922692;29;20708;-67
2023/10/02 04:46:08;;;;;;;5.93;3.10;;;15.10;99.90;;;15.31;nan;101254.56;4901193;29;20665;-67
2023/10/02 04:48:45;;;;;;;6.13;3.90;;;15.00;99.90;;;15.26;nan;101251.50;4911479;29;20641;-67
2023/10/02 04:51:16;;;;;;;5.23;3.87;;;15.00;99.90;;;15.25;nan;101251.59;4911115;29;20652;-68
2023/10/02 04:53:45;;;;;;;5.60;3.93;;;14.90;99.90;;;15.24;nan;101247.31;4912216;29;20638;-67
2023/10/02 04:58:51;;;;;;;6.07;3.50;;;14.90;99.90;;;15.28;nan;101252.22;4910083;29;20646;-69
2023/10/02 05:01:42;;;;;;;6.80;4.70;;;15.00;99.90;;;15.27;nan;101253.16;4909894;29;21259;-67
2023/10/02 05:04:17;;;;;;;5.80;4.10;;;15.00;99.90;;;15.30;nan;101257.34;4908044;29;20704;-66
2023/10/02 05:06:44;;;;;;;4.47;3.83;;;15.00;99.90;;;15.31;nan;101257.19;4901285;29;20661;-65
2023/10/02 05:09:20;;;;;;;8.00;4.77;;;15.00;99.90;;;15.30;nan;101258.19;4910796;29;20638;-66
2023/10/02 05:11:53;;;;;;;9.40;4.83;;;15.00;99.90;;;15.30;nan;101252.91;4912091;29;21434;-66
2023/10/02 05:14:27;;;;;;;8.37;4.50;;;15.00;99.90;;;15.32;nan;101244.91;4932906;29;21258;-68
2023/10/02 05:20:04;;;;;;;12.70;4.80;;;15.00;99.90;;;15.31;nan;101246.69;4917963;29;20645;-67
2023/10/02 05:22:36;;;;;;;7.23;4.47;;;15.00;99.90;;;15.31;nan;101243.25;4926209;29;21043;-67
2023/10/02 05:25:07;;;;;;;8.10;4.03;;;15.00;99.90;;;15.29;nan;101251.25;4914029;29;20641;-66
2023/10/02 05:27:40;;;;;;;7.63;3.90;;;15.00;99.90;;;15.28;nan;101244.31;4916345;29;20666;-67
2023/10/02 05:30:14;;;;;;;7.50;3.77;;;15.00;99.90;;;15.29;nan;101245.16;4911673;29;20660;-67
2023/10/02 05:32:41;;;;;;;5.83;3.30;;;15.00;99.90;;;15.24;nan;101242.06;4907522;29;21218;-66
2023/10/02 05:37:42;;;;;;;3.30;2.80;;;14.90;99.90;;;15.16;nan;101253.19;4907021;29;20673;-65
2023/10/02 05:42:53;;;;;;;7.53;3.70;;;14.80;99.90;;;15.07;nan;101253.97;4909334;29;20668;-70
2023/10/02 05:45:38;;;;;;;3.70;3.00;;;14.80;99.90;;;15.09;nan;101257.31;4908498;29;21218;-67
2023/10/02 05:48:15;;;;;;;5.37;3.30;;;14.80;99.90;;;15.10;nan;101261.59;4914220;29;20716;-66
2023/10/02 05:50:47;;;;;;;8.17;3.63;;;14.80;99.90;;;15.06;nan;101254.91;4909817;29;20648;-67
2023/10/02 05:53:19;;;;;;;5.33;3.30;;;14.80;99.90;;;15.02;nan;101261.38;4914475;29;20642;-67
2023/10/02 05:56:05;;;;;;;2.70;2.50;;;14.70;99.90;;;15.05;nan;101262.91;4912853;29;20661;-66
2023/10/02 05:58:35;;;;;;;4.50;3.43;;;14.80;99.90;;;15.15;nan;101259.44;4927716;29;20677;-67
2023/10/02 06:01:23;;;;;;;7.03;3.83;;;14.80;99.90;;;15.46;nan;101269.13;4910612;29;20658;-66
2023/10/02 06:03:56;;;;;;;3.03;2.70;;;15.00;99.90;;;15.87;nan;101270.13;4920433;29;20638;-68
2023/10/02 06:06:27;;;;;;;4.20;3.10;;;15.40;99.90;;;16.16;nan;101271.97;4907269;29;20673;-70
2023/10/02 06:09:02;;;;;;;3.40;2.70;;;15.70;99.90;;;16.49;nan;101275.31;4908649;29;20685;-68
2023/10/02 06:11:33;;;;;;;6.47;3.87;;;16.10;99.90;;;16.86;nan;101279.94;4907284;29;20652;-67
2023/10/02 06:14:10;;;;;;;6.40;3.50;;;16.40;99.90;;;17.34;nan;101290.53;4913585;29;20648;-65
2023/10/02 06:16:42;;;;;;;7.60;3.87;;;16.80;99.90;;;17.89;nan;101283.72;4911394;29;20662;-67
2023/10/02 06:19:14;;;;;;;6.57;3.33;;;17.30;99.90;;;18.53;nan;101289.16;4911999;29;20642;-68
2023/10/02 06:21:46;;;;;;;9.33;4.80;;;18.00;99.90;;;18.95;nan;101286.88;4905056;29;20687;-68
2023/10/02 06:24:18;;;;;;;6.77;3.90;;;18.40;99.90;;;19.23;nan;101289.31;4910756;29;20633;-66
2023/10/02 06:26:58;;;;;;;4.83;3.80;;;18.70;99.90;;;19.60;nan;101291.84;4926750;29;20689;-66
2023/10/02 06:29:37;;;;;;;8.90;4.00;;;19.10;99.90;;;19.84;nan;101284.09;4925978;29;20636;-66
2023/10/02 06:32:11;;;;;;;5.37;3.30;;;19.30;99.90;;;20.13;nan;101289.94;4911454;29;20673;-67
2023/10/02 06:34:43;;;;;;;8.03;3.87;;;19.60;99.90;;;20.34;nan;101289.59;4908349;29;20641;-65
2023/10/02 06:37:25;;;;;;;8.10;4.00;;;19.80;99.90;;;20.65;nan;101288.09;4913928;29;20662;-67
2023/10/02 06:40:13;;;;;;;6.77;4.07;;;20.20;99.90;;;21.08;nan;101294.25;4913485;29;20642;-67
2023/10/02 06:42:48;;;;;;;3.57;2.70;;;20.60;99.90;;;21.46;nan;101301.63;4911287;29;20732;-67
2023/10/02 06:45:21;;;;;;;7.00;3.70;;;21.00;99.90;;;21.60;nan;101301.78;4913782;29;20692;-67
2023/10/02 06:47:48;;;;;;;8.63;4.50;;;21.20;99.90;;;21.77;nan;101301.78;4908782;29;20662;-67
2023/10/02 06:50:30;;;;;;;8.50;4.20;;;21.30;99.90;;;21.97;nan;101296.00;4910389;29;21247;-66
2023/10/02 06:52:58;;;;;;;6.50;4.17;;;21.50;99.90;;;22.44;nan;101301.38;4908842;29;21221;-69
2023/10/02 06:55:27;;;;;;;5.50;4.07;;;22.00;99.90;;;22.92;nan;101292.41;4905416;29;20645;-68
2023/10/02 06:57:54;;;;;;;6.67;4.00;;;22.80;99.90;;;23.46;nan;101298.59;4912027;29;21247;-67
2023/10/02 07:00:25;;;;;;;6.63;4.13;;;23.00;99.90;;;23.94;nan;101300.03;4914398;29;20642;-67
2023/10/02 07:02:58;;;;;;;4.30;3.90;;;23.50;99.90;;;24.17;nan;101295.50;4913753;29;20637;-66
2023/10/02 07:05:35;;;;;;;6.83;3.77;;;23.80;99.90;;;24.41;nan;101295.22;4911064;29;20645;-65
2023/10/02 07:08:18;;;;;;;5.87;4.17;;;24.10;99.90;;;24.51;nan;101301.94;4912850;29;21223;-66
2023/10/02 07:10:47;;;;;;;6.03;4.23;;;24.30;99.90;;;24.90;nan;101301.66;4911750;29;20634;-65
2023/10/02 07:13:22;;;;;;;5.20;3.97;;;24.70;99.50;;;25.11;nan;101306.22;4912298;29;20992;-64
2023/10/02 07:15:55;;;;;;;8.03;4.07;;;25.00;98.80;;;25.51;nan;101300.31;4913715;29;20653;-67
2023/10/02 07:18:45;;;;;;;6.23;4.30;;;25.50;98.00;;;25.73;nan;101301.94;4913061;29;20984;-65
2023/10/02 07:21:13;;;;;;;12.00;5.73;;;25.70;97.30;;;25.86;nan;101299.38;4903494;29;20682;-66
2023/10/02 07:23:43;;;;;;;7.67;4.37;;;25.90;96.50;;;26.06;nan;101295.03;4909266;29;20630;-66
2023/10/02 07:26:17;;;;;;;9.63;3.90;;;26.10;96.20;;;26.69;nan;101304.69;4922857;29;20662;-67
2023/10/02 07:28:52;;;;;;;10.80;4.80;;;26.70;95.20;;;27.04;nan;101292.09;4914387;29;20646;-68
2023/10/02 07:31:21;;;;;;;8.30;4.60;;;27.10;93.80;;;27.35;nan;101291.56;4912609;29;21898;-67
2023/10/02 07:33:48;;;;;;;7.10;4.37;;;27.50;93.30;;;27.79;nan;101289.13;4911731;29;20630;-67
2023/10/02 07:36:16;;;;;;;10.07;4.90;;;28.00;92.10;;;28.10;nan;101288.50;4908436;29;20744;-66
2023/10/02 07:38:46;;;;;;;8.23;5.60;;;28.30;91.10;;;28.26;nan;101296.13;4913099;29;20645;-66
2023/10/02 07:41:23;;;;;;;8.07;4.53;;;28.40;90.90;;;28.81;nan;101289.38;4908703;29;21259;-66
2023/10/02 07:43:53;;;;;;;9.10;4.73;;;29.00;90.00;;;28.97;nan;101287.03;4908022;29;21189;-68
2023/10/02 07:46:22;;;;;;;6.23;4.40;;;29.10;88.50;;;29.22;nan;101287.09;4911226;29;20670;-67
2023/10/02 07:49:04;;;;;;;7.67;5.00;;;29.20;87.10;;;29.28;nan;101285.44;4911309;29;21247;-66
2023/10/02 07:51:38;;;;;;;7.73;4.60;;;29.30;86.30;;;29.28;nan;101288.13;4920739;29;20648;-66
2023/10/02 07:54:12;;;;;;;6.60;4.57;;;29.20;85.90;;;29.70;nan;101284.69;4909240;29;20641;-71
2023/10/02 07:56:40;;;;;;;7.90;4.87;;;29.60;84.80;;;29.62;nan;101282.28;4918981;29;20674;-71
2023/10/02 07:59:09;;;;;;;7.17;4.60;;;29.60;83.70;;;29.85;nan;101279.84;4908949;29;20706;-72
2023/10/02 08:01:36;;;;;;;6.73;5.07;;;29.90;82.60;;;30.21;nan;101279.91;4912677;29;20708;-72
2023/10/02 08:04:04;;;;;;;9.17;5.17;;;30.30;82.10;;;30.65;nan;101290.41;4908987;29;21225;-70
2023/10/02 08:11:50;;;;;;;9.10;4.90;;;31.30;77.30;;;31.47;nan;101286.22;4907224;29;20647;-71
2023/10/02 08:17:21;;;;;;;8.27;5.33;;;31.70;75.80;;;32.13;nan;101277.84;4914838;29;20747;-72
2023/10/02 08:20:15;;;;;;;6.77;4.93;;;32.00;75.00;;;32.20;nan;101283.13;4908273;29;21087;-73
2023/10/02 08:22:48;;;;;;;7.17;4.90;;;32.00;73.90;;;32.10;nan;101279.13;4923662;29;20716;-67
2023/10/02 08:25:16;;;;;;;6.70;4.87;;;31.90;73.80;;;32.48;nan;101280.50;4912543;29;20642;-72
2023/10/02 08:27:55;;;;;;;8.27;4.93;;;32.30;73.10;;;32.80;nan;101281.69;4910904;29;20709;-71
2023/10/02 08:30:36;;;;;;;8.20;5.07;;;32.80;72.00;;;33.26;nan;101283.41;4912153;29;20634;-71
2023/10/02 08:33:18;;;;;;;8.47;5.20;;;33.30;70.80;;;33.34;nan;101277.59;4906825;29;21026;-71
2023/10/02 08:36:01;;;;;;;7.30;5.83;;;33.60;68.70;;;33.92;nan;101282.63;4913764;29;20744;-71
2023/10/02 08:38:28;;;;;;;4.93;4.43;;;34.10;67.60;;;34.92;nan;101284.00;4926188;29;21401;-70
2023/10/02 08:41:03;;;;;;;5.87;5.10;;;34.90;66.40;;;35.80;nan;101291.63;4911468;29;21305;-72
2023/10/02 08:43:53;;;;;;;7.70;5.10;;;35.70;64.60;;;36.62;nan;101287.50;4912799;29;20629;-71
2023/10/02 08:46:21;;;;;;;6.37;4.90;;;36.50;62.90;;;36.62;nan;101282.88;4913173;29;20669;-71
2023/10/02 08:48:55;;;;;;;7.80;5.30;;;36.70;61.50;;;36.75;nan;101287.81;4909113;29;20641;-71
2023/10/02 08:51:34;;;;;;;9.83;4.87;;;36.80;60.40;;;37.06;nan;101283.28;4912142;29;20676;-71
2023/10/02 08:54:05;;;;;;;7.80;5.40;;;37.10;59.70;;;37.62;nan;101284.16;4914670;29;20646;-68
2023/10/02 08:56:48;;;;;;;7.87;5.07;;;37.70;58.40;;;38.23;nan;101284.91;4913831;29;20683;-66
2023/10/02 08:59:18;;;;;;;6.80;5.37;;;38.10;57.70;;;38.44;nan;101289.22;4915452;29;20640;-65
2023/10/02 09:01:50;;;;;;;7.07;5.70;;;38.50;56.50;;;38.65;nan;101286.13;4915459;29;20676;-66
2023/10/02 09:07:14;;;;;;;5.80;4.73;;;39.00;55.10;;;39.03;nan;101295.47;4913855;29;20727;-69
2023/10/02 09:09:45;;;;;;;7.40;5.00;;;39.20;54.50;;;39.78;nan;101293.28;4912552;29;20633;-67
2023/10/02 09:12:16;;;;;;;9.97;5.73;;;39.80;54.10;;;40.25;nan;101296.06;4912944;29;20647;-67
2023/10/02 09:14:43;;;;;;;8.77;6.00;;;40.20;53.30;;;40.37;nan;101285.53;4914399;29;20640;-68
2023/10/02 09:17:21;;;;;;;7.70;5.87;;;40.50;52.40;;;39.89;nan;101283.88;4909931;29;20677;-69
2023/10/02 09:20:04;;;;;;;7.00;5.67;;;40.10;52.50;;;40.58;nan;101286.91;4921781;29;21037;-68
2023/10/02 09:22:37;;;;;;;6.13;5.40;;;40.50;52.10;;;40.75;nan;101289.16;4914684;29;20669;-68
2023/10/02 09:25:35;;;;;;;7.47;5.50;;;40.80;51.50;;;40.74;nan;101284.81;4911101;29;20645;-67
2023/10/02 09:28:04;;;;;;;7.10;5.37;;;40.70;51.20;;;40.11;nan;101276.00;4911822;29;20668;-68
2023/10/02 09:33:22;;;;;;;7.43;5.70;;;39.10;51.90;;;37.77;nan;101262.34;4912632;29;20634;-67
2023/10/02 09:36:00;;;;;;;8.70;5.70;;;37.60;53.70;;;35.90;nan;101247.44;4912987;29;20646;-70
2023/10/02 09:38:47;;;;;;;9.53;5.20;;;35.80;55.40;;;34.12;nan;101245.03;4922773;29;20630;-69
2023/10/02 09:41:16;;;;;;;8.00;5.47;;;34.00;57.70;;;32.69;nan;101242.84;4910942;29;20692;-69
2023/10/02 09:43:44;;;;;;;6.77;4.97;;;32.50;59.90;;;31.28;nan;101233.38;4914574;29;20629;-67
2023/10/02 09:46:16;;;;;;;9.03;5.83;;;31.10;62.40;;;30.31;nan;101234.47;4910197;29;21254;-70
2023/10/02 09:49:01;;;;;;;8.87;4.97;;;30.00;64.60;;;29.41;nan;101236.97;4914011;29;20645;-66
2023/10/02 09:52:10;;;;;;;11.00;5.40;;;29.10;66.60;;;28.17;nan;101235.69;4921520;29;20646;-67
2023/10/02 09:55:11;;;;;;;10.23;5.07;;;28.00;69.20;;;27.07;nan;101229.25;4927009;29;20646;-65
2023/10/02 09:57:49;;;;;;;7.53;4.77;;;26.90;72.40;;;26.45;nan;101235.59;4914485;29;20665;-66
2023/10/02 10:00:37;;;;;;;10.83;4.97;;;26.10;74.70;;;26.13;nan;101229.03;4911040;29;20634;-65
2023/10/02 10:03:22;;;;;;;14.03;6.00;;;25.70;76.70;;;25.61;nan;101227.84;4909217;29;20677;-67
2023/10/02 10:06:16;;;;;;;10.87;5.60;;;25.30;79.10;;;25.45;nan;101220.91;4911774;29;20952;-67
2023/10/02 10:14:41;;;;;;;7.93;4.77;;;24.90;83.80;;;25.41;nan;101208.94;4909881;29;20997;-69
2023/10/02 10:17:49;;;;;;;9.80;4.83;;;24.90;83.90;;;25.66;nan;101202.16;4923417;29;20674;-70
2023/10/02 10:20:19;;;;;;;8.77;4.50;;;25.20;84.20;;;26.72;nan;101202.59;4912364;29;20630;-68
2023/10/02 10:22:55;;;;;;;8.87;4.50;;;26.40;81.80;;;27.68;nan;101203.97;4910797;29;20704;-66
2023/10/02 10:27:59;;;;;;;7.03;4.33;;;28.10;78.00;;;28.92;nan;101200.06;4909519;29;20653;-68
2023/10/02 10:30:46;;;;;;;9.10;5.50;;;28.30;77.00;;;28.47;nan;101204.59;4904969;29;20645;-67
2023/10/02 10:35:57;;;;;;;10.27;5.40;;;27.20;79.00;;;27.03;nan;101193.16;4909210;29;20648;-67
2023/10/02 10:38:44;;;;;;;8.37;4.97;;;26.50;80.50;;;26.56;nan;101194.06;4907223;29;20643;-67
2023/10/02 10:41:35;;;;;;;8.20;4.67;;;26.00;82.60;;;25.92;nan;101197.00;4904078;29;20640;-68
2023/10/02 10:44:06;;;;;;;6.90;4.70;;;25.40;84.20;;;25.62;nan;101190.22;4910063;29;20626;-65
2023/10/02 10:46:37;;;;;;;8.67;4.87;;;25.10;85.90;;;25.40;nan;101188.59;4907035;29;20665;-67
2023/10/02 10:49:10;;;;;;;19.73;10.17;;;24.80;87.00;;;25.25;nan;101187.84;4909147;29;20634;-68
2023/10/02 10:51:38;;;;;;;9.37;5.90;;;24.60;88.20;;;25.18;nan;101184.28;4913889;29;20642;-67
2023/10/02 10:54:19;;;;;;;8.17;5.07;;;24.60;89.60;;;25.14;nan;101181.16;4908421;29;20732;-71
2023/10/02 10:57:22;;;;;;;9.23;5.10;;;24.50;90.50;;;25.08;nan;101183.78;4909889;29;20793;-69
2023/10/02 11:00:25;;;;;;;9.93;4.47;;;24.50;90.60;;;24.99;nan;101180.41;4897284;29;20733;-71
2023/10/02 11:03:08;;;;;;;9.47;5.60;;;24.40;91.00;;;24.87;nan;101173.09;4925276;29;20669;-69
2023/10/02 11:05:38;;;;;;;12.90;5.80;;;24.20;91.30;;;24.83;nan;101163.81;4925595;29;20641;-71
2023/10/02 11:08:25;;;;;;;7.40;4.70;;;24.20;91.60;;;24.83;nan;101171.81;4912856;29;20661;-71
2023/10/02 11:11:21;;;;;;;9.40;5.07;;;24.20;92.20;;;24.83;nan;101161.16;4909864;29;20645;-70
2023/10/02 11:14:00;;;;;;;10.50;6.17;;;24.10;92.10;;;24.83;nan;101156.63;4907201;29;20646;-70
2023/10/02 11:16:36;;;;;;;8.97;4.80;;;24.20;92.50;;;24.86;nan;101164.25;4904223;29;20683;-70
2023/10/02 11:22:15;;;;;;;7.70;4.70;;;24.20;93.00;;;24.86;nan;101150.06;4920758;29;20677;-66
2023/10/02 11:24:55;;;;;;;12.13;6.13;;;24.20;92.80;;;24.85;nan;101154.63;4898091;29;20643;-67
2023/10/02 11:27:24;;;;;;;9.43;4.50;;;24.10;92.70;;;24.81;nan;101147.16;4903391;29;20663;-66
2023/10/02 11:30:01;;;;;;;11.77;5.00;;;24.10;92.80;;;24.81;nan;101152.50;4898983;29;20639;-67
2023/10/02 11:32:53;;;;;;;11.47;4.70;;;24.10;92.90;;;24.80;nan;101143.66;4897719;29;20646;-65
2023/10/02 11:35:21;;;;;;;12.83;5.13;;;24.20;93.10;;;24.79;nan;101135.88;4902469;29;20700;-66
2023/10/02 11:37:49;;;;;;;8.67;4.23;;;24.10;93.10;;;24.75;nan;101134.56;4920069;29;20666;-65
2023/10/02 11:40:17;;;;;;;12.13;6.00;;;24.10;93.40;;;24.72;nan;101132.25;4909134;29;20634;-67
2023/10/02 11:42:43;;;;;;;7.20;5.60;;;24.00;93.60;;;24.70;nan;101128.94;4913085;29;21254;-66
2023/10/02 11:45:11;;;;;;;9.80;5.23;;;24.00;94.10;;;24.73;nan;101126.72;4911576;29;20634;-66
2023/10/02 11:47:39;;;;;;;10.60;5.73;;;24.00;94.20;;;24.78;nan;101118.19;4924101;29;20690;-67
2023/10/02 11:50:07;;;;;;;13.00;6.83;;;24.00;94.40;;;24.79;nan;101119.84;4902415;29;20631;-67
2023/10/02 11:52:34;;;;;;;7.43;4.33;;;24.10;94.30;;;24.80;nan;101113.47;4893719;29;20639;-64
2023/10/02 11:55:01;;;;;;;10.03;5.47;;;24.10;94.40;;;24.82;nan;101106.09;4902818;29;21020;-66
2023/10/02 11:57:28;;;;;;;8.27;5.10;;;24.10;94.20;;;24.86;nan;101094.03;4895382;29;20675;-67
2023/10/02 11:59:56;;;;;;;6.87;4.00;;;24.10;94.70;;;24.91;nan;101094.28;4904082;29;20644;-66
2023/10/02 12:02:25;;;;;;;7.60;4.17;;;24.20;94.70;;;24.93;nan;101090.41;4896799;29;20674;-66